Clyde, North Carolina
Current Conditions -  °F | °C
As of 5:54 PM on Wednesday 22 Oct 2014 (Local Time) from KAVL Reporting Station
Broken Clouds Broken Clouds  
Wind Chill: 53°   Ceiling: 4000
Heat Index: 53°   Visibility: 10mi
Dew Point: 36°   Wind: 18mph
Humidity: 52%   Direction: 340°NNW
Pressure: 30.14"   Gusts: 28mph
Location:  35.53°N, 82.91°W
Report Text: KAVL 222154Z 34016G24KT 10SM BKN040 12/02 A3014 RMK AO2 PK WND 33026/2058 SLP199 T01170022
Loading
Personal Weather Stations






























Interactive Weather Map
Tropical Storm Tracking
New forecast layout! Learn more

10-Day Weather Forecast

Advertisements
Track Severe Weather on mobile